createdAt,value
2023-01-13T00:00:34.032Z,3.00
2023-01-13T00:03:22.178Z,3.20
2023-01-13T00:05:50.887Z,2.00
2023-01-13T00:08:19.257Z,3.00
2023-01-13T00:10:48.135Z,2.70
2023-01-13T00:13:16.530Z,3.20
2023-01-13T00:15:44.852Z,1.80
2023-01-13T00:18:14.004Z,2.40
2023-01-13T00:20:42.393Z,2.70
2023-01-13T00:23:10.671Z,2.80
2023-01-13T00:25:38.949Z,2.10
2023-01-13T00:28:09.119Z,2.60
2023-01-13T00:30:37.976Z,1.60
2023-01-13T00:33:06.245Z,2.80
2023-01-13T00:35:34.634Z,2.90
2023-01-13T00:38:03.008Z,2.50
2023-01-13T00:40:31.289Z,2.80
2023-01-13T00:43:17.991Z,2.20
2023-01-13T00:45:46.285Z,2.40
2023-01-13T00:48:14.526Z,2.30
2023-01-13T00:50:42.935Z,1.80
2023-01-13T00:53:11.905Z,1.70
2023-01-13T00:55:40.435Z,1.90
2023-01-13T00:58:08.883Z,2.00
2023-01-13T01:00:37.599Z,2.30
2023-01-13T01:03:08.304Z,1.50
2023-01-13T01:05:36.589Z,1.90
2023-01-13T01:08:05.329Z,1.90
2023-01-13T01:10:33.671Z,2.00
2023-01-13T01:13:01.954Z,2.10
2023-01-13T01:15:30.303Z,2.30
2023-01-13T01:17:58.577Z,2.10
2023-01-13T01:20:26.863Z,2.10
2023-01-13T01:22:55.109Z,1.80
2023-01-13T01:25:23.544Z,2.50
2023-01-13T01:27:51.900Z,1.80
2023-01-13T01:30:20.451Z,1.90
2023-01-13T01:32:48.815Z,2.30
2023-01-13T01:35:17.247Z,2.80
2023-01-13T01:37:45.664Z,2.50
2023-01-13T01:40:14.683Z,2.50
2023-01-13T01:43:01.538Z,3.30
2023-01-13T01:45:31.078Z,2.80
2023-01-13T01:48:02.781Z,4.00
2023-01-13T01:50:32.699Z,2.70
2023-01-13T01:53:07.232Z,2.40
2023-01-13T01:55:37.977Z,2.30
2023-01-13T01:58:11.349Z,2.20
2023-01-13T02:00:39.761Z,2.20
2023-01-13T02:03:10.692Z,2.00
2023-01-13T02:05:39.000Z,2.00
2023-01-13T02:08:11.290Z,2.30
2023-01-13T02:10:42.144Z,2.10
2023-01-13T02:13:13.404Z,1.90
2023-01-13T02:15:53.958Z,1.60
2023-01-13T02:18:36.092Z,2.10
2023-01-13T02:21:27.493Z,1.80
2023-01-13T02:26:57.977Z,1.60
2023-01-13T02:30:22.962Z,1.90
2023-01-13T02:33:31.027Z,2.20
2023-01-13T02:36:13.896Z,2.40
2023-01-13T02:39:14.122Z,3.00
2023-01-13T02:42:27.519Z,3.00
2023-01-13T02:45:24.731Z,3.00
2023-01-13T02:48:20.280Z,2.00
2023-01-13T02:51:16.426Z,2.50
2023-01-13T02:54:13.628Z,2.60
2023-01-13T02:57:09.734Z,3.70
2023-01-13T03:00:02.912Z,2.50
2023-01-13T03:02:55.238Z,3.50
2023-01-13T03:05:50.241Z,3.90
2023-01-13T03:08:34.740Z,3.50
2023-01-13T03:11:35.585Z,3.70
2023-01-13T03:14:37.231Z,4.30
2023-01-13T03:17:39.225Z,3.90
2023-01-13T03:20:38.514Z,3.70
2023-01-13T03:23:36.394Z,3.30
2023-01-13T03:26:35.825Z,3.40
2023-01-13T03:29:34.828Z,3.30
2023-01-13T03:32:30.690Z,3.60
2023-01-13T03:35:11.798Z,3.40
2023-01-13T03:38:08.529Z,3.40
2023-01-13T03:41:04.441Z,3.60
2023-01-13T03:44:22.008Z,4.00
2023-01-13T03:47:22.031Z,3.80
2023-01-13T03:50:19.815Z,4.00
2023-01-13T03:52:57.735Z,4.00
2023-01-13T03:55:55.108Z,2.90
2023-01-13T03:58:34.057Z,3.10
2023-01-13T04:01:33.875Z,3.00
2023-01-13T04:04:31.157Z,4.00
2023-01-13T04:07:41.144Z,4.50
2023-01-13T04:10:39.687Z,3.90
2023-01-13T04:13:38.095Z,4.50
2023-01-13T04:16:30.480Z,3.50
2023-01-13T04:19:12.035Z,4.60
2023-01-13T04:22:04.492Z,4.20
2023-01-13T04:24:56.689Z,3.80
2023-01-13T04:27:48.829Z,2.60
2023-01-13T04:30:41.530Z,3.50
2023-01-13T04:33:33.876Z,3.60
2023-01-13T04:36:10.461Z,3.90
2023-01-13T04:39:02.887Z,3.80
2023-01-13T04:42:02.783Z,4.20
2023-01-13T04:44:43.769Z,3.10
2023-01-13T04:47:35.975Z,3.10
2023-01-13T04:50:28.852Z,3.80
2023-01-13T04:53:20.994Z,3.50
2023-01-13T04:56:13.157Z,3.70
2023-01-13T04:59:05.306Z,3.70
2023-01-13T05:01:57.668Z,3.80
2023-01-13T05:04:50.788Z,2.40
2023-01-13T05:07:43.015Z,3.80
2023-01-13T05:10:35.199Z,3.60
2023-01-13T05:13:45.029Z,3.30
2023-01-13T05:16:54.949Z,3.30
2023-01-13T05:19:47.398Z,4.00
2023-01-13T05:22:57.075Z,2.90
2023-01-13T05:25:50.679Z,3.70
2023-01-13T05:28:25.622Z,3.90
2023-01-13T05:31:00.494Z,3.70
2023-01-13T05:33:52.828Z,4.00
2023-01-13T05:36:24.867Z,2.80
2023-01-13T05:39:17.050Z,4.20
2023-01-13T05:42:28.390Z,3.30
2023-01-13T05:45:00.567Z,4.20
2023-01-13T05:47:52.750Z,3.90
2023-01-13T05:50:44.962Z,3.20
2023-01-13T05:53:37.649Z,3.60
2023-01-13T05:56:29.829Z,4.10
2023-01-13T05:59:04.871Z,3.40
2023-01-13T06:01:45.785Z,3.70
2023-01-13T06:04:39.141Z,3.30
2023-01-13T06:07:31.409Z,3.60
2023-01-13T06:10:23.661Z,3.70
2023-01-13T06:13:15.867Z,3.30
2023-01-13T06:16:08.925Z,3.40
2023-01-13T06:19:01.458Z,3.60
2023-01-13T06:21:36.327Z,3.10
2023-01-13T06:24:29.600Z,3.60
2023-01-13T06:27:23.926Z,3.50
2023-01-13T06:30:05.131Z,3.00
2023-01-13T06:33:00.046Z,3.40
2023-01-13T06:35:57.843Z,4.10
2023-01-13T06:38:52.062Z,5.00
2023-01-13T06:44:54.449Z,5.10
2023-01-13T06:47:46.722Z,4.90
2023-01-13T06:50:37.829Z,4.60
2023-01-13T06:53:13.299Z,4.90
2023-01-13T06:56:05.774Z,5.00
2023-01-13T06:58:58.140Z,3.80
2023-01-13T07:01:50.405Z,5.00
2023-01-13T07:04:44.368Z,4.00
2023-01-13T07:07:36.597Z,4.30
2023-01-13T07:10:28.924Z,4.80
2023-01-13T07:13:40.395Z,5.50
2023-01-13T07:16:34.670Z,5.60
2023-01-13T07:19:09.862Z,5.90
2023-01-13T07:22:02.190Z,4.70
2023-01-13T07:24:43.384Z,5.80
2023-01-13T07:27:36.059Z,5.90
2023-01-13T07:30:28.461Z,5.80
2023-01-13T07:33:09.957Z,6.10
2023-01-13T07:36:03.704Z,6.40
2023-01-13T07:38:56.795Z,4.90
2023-01-13T07:42:02.747Z,6.50
2023-01-13T07:44:55.070Z,4.80
2023-01-13T07:47:47.269Z,5.70
2023-01-13T07:50:23.724Z,5.70
2023-01-13T07:53:15.848Z,6.10
2023-01-13T07:56:10.390Z,6.50
2023-01-13T07:59:03.094Z,4.30
2023-01-13T08:01:56.341Z,6.00
2023-01-13T08:04:48.772Z,4.70
2023-01-13T08:07:23.639Z,6.10
2023-01-13T08:10:07.851Z,5.70
2023-01-13T08:13:17.344Z,6.10
2023-01-13T08:15:55.170Z,6.00
2023-01-13T08:18:47.435Z,6.10
2023-01-13T08:21:19.555Z,6.30
2023-01-13T08:24:13.373Z,6.40
2023-01-13T08:26:48.288Z,6.80
2023-01-13T08:29:23.092Z,6.70
2023-01-13T08:32:04.238Z,6.50
2023-01-13T08:34:56.835Z,6.60
2023-01-13T08:37:49.838Z,5.90
2023-01-13T08:40:25.020Z,6.10
2023-01-13T08:43:17.519Z,6.40
2023-01-13T08:46:10.255Z,6.40
2023-01-13T08:49:02.719Z,6.30
2023-01-13T08:51:55.520Z,6.20
2023-01-13T08:54:47.801Z,6.90
2023-01-13T08:57:40.145Z,6.20
2023-01-13T09:00:32.442Z,6.70
2023-01-13T09:03:25.495Z,6.40
2023-01-13T09:05:57.801Z,5.90
2023-01-13T09:08:33.091Z,6.70
2023-01-13T09:11:48.916Z,6.20
2023-01-13T09:14:25.830Z,6.20
2023-01-13T09:17:01.613Z,5.80
2023-01-13T09:19:37.357Z,6.00
2023-01-13T09:22:17.888Z,5.30
2023-01-13T09:25:12.515Z,6.20
2023-01-13T09:27:53.325Z,5.70
2023-01-13T09:30:45.577Z,5.50
2023-01-13T09:33:35.657Z,5.30
2023-01-13T09:36:11.163Z,5.50
2023-01-13T09:39:03.616Z,5.50
2023-01-13T09:42:19.944Z,5.40
2023-01-13T09:45:16.906Z,5.00
2023-01-13T09:48:17.011Z,5.70
2023-01-13T09:51:21.297Z,5.10
2023-01-13T09:54:21.755Z,5.30
2023-01-13T09:57:16.376Z,5.20
2023-01-13T10:03:22.155Z,5.80
2023-01-13T10:06:20.036Z,5.40
2023-01-13T10:09:20.013Z,4.50
2023-01-13T10:12:37.962Z,5.00
2023-01-13T10:15:30.840Z,4.60
2023-01-13T10:18:29.892Z,5.00
2023-01-13T10:21:53.596Z,4.70
2023-01-13T10:25:26.365Z,4.80
2023-01-13T10:28:19.861Z,4.50
2023-01-13T10:31:17.699Z,4.40
2023-01-13T10:34:10.264Z,4.80
2023-01-13T10:37:06.595Z,5.10
2023-01-13T10:40:02.845Z,5.50
2023-01-13T10:43:07.962Z,4.40
2023-01-13T10:48:42.663Z,4.70
2023-01-13T10:51:50.190Z,5.10
2023-01-13T10:54:54.189Z,4.90
2023-01-13T10:57:30.042Z,4.80
2023-01-13T11:02:19.900Z,4.70
2023-01-13T11:05:25.932Z,5.10
2023-01-13T11:08:20.771Z,4.50
2023-01-13T11:11:40.332Z,4.50
2023-01-13T11:17:09.779Z,4.20
2023-01-13T11:20:14.475Z,4.80
2023-01-13T11:25:52.077Z,4.50
2023-01-13T11:28:41.234Z,4.00
2023-01-13T11:31:38.095Z,4.20
2023-01-13T11:34:29.210Z,4.40
2023-01-13T11:37:24.602Z,4.60
2023-01-13T11:40:22.436Z,4.00
2023-01-13T11:43:24.200Z,4.40
2023-01-13T11:46:16.487Z,4.40
2023-01-13T11:49:11.523Z,4.70
2023-01-13T11:52:12.403Z,5.00
2023-01-13T11:55:22.645Z,4.90
2023-01-13T11:58:50.160Z,4.70
2023-01-13T12:02:15.372Z,5.10
2023-01-13T12:05:04.365Z,4.80
2023-01-13T12:08:06.342Z,4.90
2023-01-13T12:11:08.862Z,4.80
2023-01-13T12:14:17.695Z,5.30
2023-01-13T12:17:23.311Z,5.30
2023-01-13T12:20:29.326Z,5.10
2023-01-13T12:23:31.356Z,5.10
2023-01-13T12:26:24.804Z,5.30
2023-01-13T12:29:19.347Z,4.90
2023-01-13T12:32:03.543Z,5.30
2023-01-13T12:35:08.556Z,4.90
2023-01-13T12:38:09.366Z,5.00
2023-01-13T12:40:52.323Z,5.20
2023-01-13T12:44:06.545Z,5.20
2023-01-13T12:47:01.554Z,4.60
2023-01-13T12:50:13.711Z,5.30
2023-01-13T12:53:38.696Z,5.50
2023-01-13T12:56:37.988Z,5.50
2023-01-13T12:59:49.889Z,5.30
2023-01-13T13:02:44.056Z,5.60
2023-01-13T13:05:47.904Z,5.90
2023-01-13T13:09:05.029Z,6.20
2023-01-13T13:12:14.734Z,6.30
2023-01-13T13:15:23.371Z,5.90
2023-01-13T13:18:31.229Z,6.00
2023-01-13T13:21:24.020Z,6.50
2023-01-13T13:24:18.162Z,5.40
2023-01-13T13:27:25.482Z,6.20
2023-01-13T13:30:24.782Z,5.80
2023-01-13T13:33:36.944Z,5.80
2023-01-13T13:36:50.543Z,5.90
2023-01-13T13:39:45.639Z,5.70
2023-01-13T13:43:02.399Z,6.10
2023-01-13T13:46:12.256Z,5.70
2023-01-13T13:49:04.532Z,5.30
2023-01-13T13:52:04.410Z,5.60
2023-01-13T13:54:59.800Z,5.10
2023-01-13T13:57:54.594Z,5.30
2023-01-13T14:00:34.242Z,5.00
2023-01-13T14:03:30.204Z,5.50
2023-01-13T14:06:25.513Z,5.50
2023-01-13T14:09:21.144Z,5.80
2023-01-13T14:12:20.599Z,6.30
2023-01-13T14:15:28.288Z,5.90
2023-01-13T14:18:22.848Z,6.10
2023-01-13T14:21:01.950Z,6.00
2023-01-13T14:23:57.622Z,5.80
2023-01-13T14:26:53.082Z,6.60
2023-01-13T14:29:46.792Z,6.80
2023-01-13T14:32:32.724Z,7.50
2023-01-13T14:35:25.026Z,7.90
2023-01-13T14:38:19.347Z,8.00
2023-01-13T14:41:22.830Z,7.60
2023-01-13T14:44:23.140Z,8.10
2023-01-13T14:46:57.345Z,8.60
2023-01-13T14:49:59.048Z,8.30
2023-01-13T14:52:54.565Z,8.40
2023-01-13T14:55:46.688Z,8.10
2023-01-13T14:58:38.878Z,8.30
2023-01-13T15:01:36.275Z,7.70
2023-01-13T15:04:27.675Z,7.90
2023-01-13T15:07:26.148Z,7.90
2023-01-13T15:10:19.210Z,7.30
2023-01-13T15:13:26.784Z,7.20
2023-01-13T15:16:21.910Z,7.70
2023-01-13T15:19:14.263Z,7.10
2023-01-13T15:21:55.452Z,7.20
2023-01-13T15:24:48.303Z,7.30
2023-01-13T15:27:28.055Z,7.90
2023-01-13T15:30:22.719Z,8.10
2023-01-13T15:33:15.909Z,8.00
2023-01-13T15:35:53.701Z,8.20
2023-01-13T15:38:45.921Z,8.40
2023-01-13T15:41:55.908Z,9.60
2023-01-13T15:45:05.728Z,10.00
2023-01-13T15:47:58.391Z,9.90
2023-01-13T15:50:51.482Z,10.40
2023-01-13T15:53:43.889Z,10.40
2023-01-13T15:56:27.389Z,10.00
2023-01-13T15:59:22.703Z,9.30
2023-01-13T16:02:18.094Z,9.80
2023-01-13T16:05:11.540Z,9.00
2023-01-13T16:08:00.863Z,8.80
2023-01-13T16:10:54.381Z,7.80
2023-01-13T16:13:46.570Z,9.10
2023-01-13T16:16:25.237Z,9.90
2023-01-13T16:19:17.507Z,9.90
2023-01-13T16:22:13.075Z,10.20
2023-01-13T16:25:07.195Z,9.70
2023-01-13T16:27:59.416Z,10.10
2023-01-13T16:30:41.383Z,8.80
2023-01-13T16:33:33.532Z,7.80
2023-01-13T16:36:25.938Z,7.20
2023-01-13T16:39:20.275Z,6.90
2023-01-13T16:42:12.534Z,8.30
2023-01-13T16:45:08.707Z,7.20
2023-01-13T16:48:01.267Z,7.30
2023-01-13T16:50:53.591Z,8.70
2023-01-13T16:53:46.079Z,8.20
2023-01-13T16:56:25.569Z,8.80
2023-01-13T16:59:17.928Z,8.20
2023-01-13T17:02:15.270Z,7.70
2023-01-13T17:05:10.664Z,7.40
2023-01-13T17:08:03.119Z,8.80
2023-01-13T17:10:55.807Z,8.50
2023-01-13T17:13:48.478Z,9.00
2023-01-13T17:16:41.355Z,9.50
2023-01-13T17:19:34.125Z,10.60
2023-01-13T17:22:26.815Z,10.90
2023-01-13T17:25:19.841Z,11.40
2023-01-13T17:28:12.572Z,10.50
2023-01-13T17:31:05.239Z,10.30
2023-01-13T17:33:58.050Z,9.60
2023-01-13T17:36:50.741Z,9.60
2023-01-13T17:39:46.307Z,8.80
2023-01-13T17:43:29.090Z,8.70
2023-01-13T17:46:23.038Z,7.00
2023-01-13T17:49:17.071Z,9.90
2023-01-13T17:52:09.256Z,10.30
2023-01-13T17:55:01.435Z,7.40
2023-01-13T17:57:53.617Z,8.90
2023-01-13T18:00:45.775Z,10.70
2023-01-13T18:03:20.986Z,10.00
2023-01-13T18:06:18.549Z,10.30
2023-01-13T18:08:56.646Z,11.00
2023-01-13T18:11:48.757Z,10.40
2023-01-13T18:14:40.885Z,10.40
2023-01-13T18:17:33.171Z,15.40
2023-01-13T18:20:42.751Z,13.70
2023-01-13T18:23:52.637Z,12.20
2023-01-13T18:27:02.418Z,9.00
2023-01-13T18:29:57.041Z,16.40
2023-01-13T18:32:49.331Z,9.30
2023-01-13T18:35:42.307Z,12.40
2023-01-13T18:38:35.340Z,14.50
2023-01-13T18:41:45.408Z,14.50
2023-01-13T18:44:37.771Z,15.30
2023-01-13T18:47:33.508Z,20.50
2023-01-13T18:50:27.168Z,21.20
2023-01-13T18:53:19.574Z,22.90
2023-01-13T18:56:14.273Z,22.10
2023-01-13T18:59:06.813Z,24.50
2023-01-13T19:02:00.089Z,16.50
2023-01-13T19:04:54.307Z,10.00
2023-01-13T19:07:50.917Z,15.60
2023-01-13T19:10:45.647Z,17.90
2023-01-13T19:13:38.903Z,17.60
2023-01-13T19:16:31.435Z,18.40
2023-01-13T19:19:24.207Z,16.60
2023-01-13T19:22:28.842Z,16.20
2023-01-13T19:25:21.237Z,15.50
2023-01-13T19:28:13.344Z,15.00
2023-01-13T19:31:07.706Z,14.20
2023-01-13T19:33:59.871Z,15.10
2023-01-13T19:36:54.106Z,15.00
2023-01-13T19:39:29.037Z,15.90
2023-01-13T19:42:38.530Z,16.20
2023-01-13T19:45:33.696Z,16.90
2023-01-13T19:48:26.176Z,12.10
2023-01-13T19:51:18.390Z,16.60
2023-01-13T19:54:10.552Z,16.70
2023-01-13T19:57:02.976Z,16.70
2023-01-13T19:59:55.115Z,17.10
2023-01-13T20:02:49.599Z,15.90
2023-01-13T20:05:43.150Z,15.10
2023-01-13T20:08:19.208Z,13.20
2023-01-13T20:11:31.347Z,8.50
2023-01-13T20:14:25.671Z,11.60
2023-01-13T20:16:57.812Z,13.90
2023-01-13T20:19:50.746Z,17.10
2023-01-13T20:22:43.417Z,18.80
2023-01-13T20:25:36.032Z,17.90
2023-01-13T20:28:20.006Z,17.20
2023-01-13T20:31:13.316Z,14.70
2023-01-13T20:34:05.709Z,10.90
2023-01-13T20:36:57.905Z,14.30
2023-01-13T20:39:50.508Z,11.90
2023-01-13T20:42:45.412Z,9.30
2023-01-13T20:45:40.480Z,13.20
2023-01-13T20:48:32.808Z,12.90
2023-01-13T20:51:25.030Z,14.50
2023-01-13T20:54:17.191Z,15.90
2023-01-13T20:57:11.515Z,15.30
2023-01-13T21:02:56.351Z,18.90
2023-01-13T21:05:48.544Z,18.20
2023-01-13T21:08:40.689Z,18.60
2023-01-13T21:11:14.998Z,21.20
2023-01-13T21:14:14.493Z,17.60
2023-01-13T21:16:49.498Z,14.80
2023-01-13T21:19:22.478Z,18.30
2023-01-13T21:22:14.595Z,16.60
2023-01-13T21:25:08.146Z,19.80
2023-01-13T21:28:05.615Z,12.80
2023-01-13T21:31:02.214Z,20.00
2023-01-13T21:33:57.417Z,18.30
2023-01-13T21:36:49.653Z,20.30
2023-01-13T21:39:41.833Z,19.40
2023-01-13T21:42:44.518Z,19.90
2023-01-13T21:45:57.232Z,19.50
2023-01-13T21:48:49.699Z,17.20
2023-01-13T21:51:41.913Z,20.90
2023-01-13T21:54:34.320Z,19.40
2023-01-13T21:57:27.355Z,18.60
2023-01-13T22:00:22.732Z,19.20
2023-01-13T22:03:15.664Z,17.90
2023-01-13T22:06:08.772Z,17.60
2023-01-13T22:09:01.141Z,17.70
2023-01-13T22:11:53.295Z,14.20
2023-01-13T22:14:45.403Z,13.50
2023-01-13T22:17:37.592Z,12.70
2023-01-13T22:20:29.695Z,12.20
2023-01-13T22:23:22.048Z,12.20
2023-01-13T22:26:14.240Z,12.00
2023-01-13T22:29:06.336Z,11.90
2023-01-13T22:31:58.553Z,8.90
2023-01-13T22:34:51.179Z,12.00
2023-01-13T22:37:44.254Z,11.60
2023-01-13T22:40:36.386Z,11.80
2023-01-13T22:43:30.495Z,11.70
2023-01-13T22:46:23.886Z,9.60
2023-01-13T22:49:17.729Z,8.60
2023-01-13T22:52:09.842Z,11.40
2023-01-13T22:55:02.416Z,7.90
2023-01-13T22:57:54.672Z,11.40
2023-01-13T23:00:47.520Z,12.30
2023-01-13T23:03:40.160Z,11.30
2023-01-13T23:06:34.550Z,11.80
2023-01-13T23:12:17.386Z,11.80
2023-01-13T23:15:11.329Z,13.00
2023-01-13T23:18:03.648Z,12.40
2023-01-13T23:20:55.873Z,9.00
2023-01-13T23:23:48.709Z,12.50
2023-01-13T23:26:30.969Z,12.40
2023-01-13T23:29:23.090Z,12.80
2023-01-13T23:32:15.216Z,12.20
2023-01-13T23:35:09.036Z,12.60
2023-01-13T23:38:01.080Z,12.50
2023-01-13T23:40:38.433Z,11.90
2023-01-13T23:43:30.511Z,12.30
2023-01-13T23:46:23.142Z,12.40
2023-01-13T23:49:15.895Z,12.10
2023-01-13T23:52:08.552Z,12.60
2023-01-13T23:55:00.668Z,11.80
2023-01-13T23:57:52.938Z,12.40
